Time;durP1;ratioP1;P1;durP2;ratioP2;P2;SDS_P1;SDS_P2;PMS_P1;PMS_P2;Temp;Humidity;BMP_temperature;BMP_pressure;BME280_temperature;BME280_humidity;BME280_pressure;Samples;Min_cycle;Max_cycle;Signal;HPM_P1;HPM_P2
2021/12/10 00:02:03;;;;;;;;;0.00;0.00;;;;;;;;5093820;27;45525;-42
2021/12/10 00:04:31;;;;;;;;;1.75;0.75;;;;;;;;5099005;27;45270;-42
2021/12/10 00:06:59;;;;;;;;;2.25;1.00;;;;;;;;5098776;27;45294;-44
2021/12/10 00:09:27;;;;;;;;;0.25;0.25;;;;;;;;5094478;27;45401;-42
2021/12/10 00:11:55;;;;;;;;;0.00;0.00;;;;;;;;5097541;27;46049;-45
2021/12/10 00:14:25;;;;;;;;;1.00;1.00;;;;;;;;5098353;27;45384;-42
2021/12/10 00:16:50;;;;;;;;;1.00;1.00;;;;;;;;5097445;27;45442;-44
2021/12/10 00:21:48;;;;;;;;;0.00;0.00;;;;;;;;5098631;27;46174;-43
2021/12/10 00:24:13;;;;;;;;;0.00;0.00;;;;;;;;5098866;27;45291;-42
2021/12/10 00:26:39;;;;;;;;;0.00;0.00;;;;;;;;5098635;27;45514;-44
2021/12/10 00:29:06;;;;;;;;;0.25;0.25;;;;;;;;5099116;27;45503;-43
2021/12/10 00:34:06;;;;;;;;;1.00;0.25;;;;;;;;5098444;27;45428;-43
2021/12/10 00:36:33;;;;;;;;;1.00;1.00;;;;;;;;5098629;27;45321;-42
2021/12/10 00:39:01;;;;;;;;;1.00;1.00;;;;;;;;5098551;27;45389;-42
2021/12/10 00:41:27;;;;;;;;;1.25;1.25;;;;;;;;5097449;27;45386;-42
2021/12/10 00:43:52;;;;;;;;;0.00;0.00;;;;;;;;5097635;27;45519;-43
2021/12/10 00:46:18;;;;;;;;;0.00;0.00;;;;;;;;5098671;27;45519;-44
2021/12/10 00:48:43;;;;;;;;;0.00;0.00;;;;;;;;5096322;27;45640;-44
2021/12/10 00:51:09;;;;;;;;;0.75;0.75;;;;;;;;5098085;27;45412;-42
2021/12/10 00:53:34;;;;;;;;;0.00;0.00;;;;;;;;5097907;27;45391;-41
2021/12/10 00:56:00;;;;;;;;;0.00;0.00;;;;;;;;5098520;27;45343;-42
2021/12/10 00:58:25;;;;;;;;;0.00;0.00;;;;;;;;5090263;27;45519;-44
2021/12/10 01:00:54;;;;;;;;;0.00;0.00;;;;;;;;5097716;27;46702;-43
2021/12/10 01:03:22;;;;;;;;;0.00;0.00;;;;;;;;5098150;27;45421;-43
2021/12/10 01:05:50;;;;;;;;;0.00;0.00;;;;;;;;5098468;27;45486;-42
2021/12/10 01:08:16;;;;;;;;;0.75;0.75;;;;;;;;5097961;27;45571;-44
2021/12/10 01:10:44;;;;;;;;;0.00;0.00;;;;;;;;5098489;27;45994;-43
2021/12/10 01:13:13;;;;;;;;;0.00;0.00;;;;;;;;5098065;27;45423;-42
2021/12/10 01:16:05;;;;;;;;;0.50;0.50;;;;;;;;5079138;27;45208;-43
2021/12/10 01:24:13;;;;;;;;;0.00;0.00;;;;;;;;5090165;27;45794;-43
2021/12/10 01:29:13;;;;;;;;;0.00;0.00;;;;;;;;5097758;27;45276;-42
2021/12/10 01:31:39;;;;;;;;;0.50;0.50;;;;;;;;5078682;27;47520;-44
2021/12/10 01:34:05;;;;;;;;;0.75;0.75;;;;;;;;5097714;27;45363;-43
2021/12/10 01:36:31;;;;;;;;;0.25;0.25;;;;;;;;5095954;27;45374;-43
2021/12/10 01:38:56;;;;;;;;;0.00;0.00;;;;;;;;5097075;27;45553;-45
2021/12/10 01:41:24;;;;;;;;;0.00;0.00;;;;;;;;5097194;27;45929;-47
2021/12/10 01:43:52;;;;;;;;;0.75;0.75;;;;;;;;5097130;27;45307;-43
2021/12/10 01:46:25;;;;;;;;;1.00;0.00;;;;;;;;5096101;27;45462;-42
2021/12/10 01:48:54;;;;;;;;;0.00;0.00;;;;;;;;5077922;27;45477;-43
2021/12/10 01:51:22;;;;;;;;;0.00;0.00;;;;;;;;5096102;27;45425;-41
2021/12/10 01:53:48;;;;;;;;;0.00;0.00;;;;;;;;5096430;27;45448;-42
2021/12/10 01:56:18;;;;;;;;;0.00;0.00;;;;;;;;5095513;27;45293;-42
2021/12/10 01:58:44;;;;;;;;;0.00;0.00;;;;;;;;5095982;27;45584;-43
2021/12/10 02:01:12;;;;;;;;;0.00;0.00;;;;;;;;5096738;27;45670;-42
2021/12/10 02:03:38;;;;;;;;;0.00;0.00;;;;;;;;5097491;27;45494;-42
2021/12/10 02:06:04;;;;;;;;;0.25;0.00;;;;;;;;5097480;27;45405;-43
2021/12/10 02:08:29;;;;;;;;;0.00;0.00;;;;;;;;5097531;27;45398;-44
2021/12/10 02:10:55;;;;;;;;;0.00;0.00;;;;;;;;5095753;27;45488;-42
2021/12/10 02:13:20;;;;;;;;;0.00;0.00;;;;;;;;5097364;27;45478;-42
2021/12/10 02:15:45;;;;;;;;;0.00;0.00;;;;;;;;5090197;27;45525;-44
2021/12/10 02:18:12;;;;;;;;;0.00;0.00;;;;;;;;5097729;27;45500;-43
2021/12/10 02:20:43;;;;;;;;;0.00;0.00;;;;;;;;5096304;27;45492;-42
2021/12/10 02:23:09;;;;;;;;;0.00;0.00;;;;;;;;5095659;27;45311;-42
2021/12/10 02:25:37;;;;;;;;;0.00;0.00;;;;;;;;5097455;27;45319;-44
2021/12/10 02:28:02;;;;;;;;;0.00;0.00;;;;;;;;5096934;27;45518;-43
2021/12/10 02:30:28;;;;;;;;;0.00;0.00;;;;;;;;5078364;27;47377;-45
2021/12/10 02:32:54;;;;;;;;;0.00;0.00;;;;;;;;5077771;27;45399;-43
2021/12/10 02:35:19;;;;;;;;;0.75;0.00;;;;;;;;5097333;27;45295;-44
2021/12/10 02:37:46;;;;;;;;;0.75;0.00;;;;;;;;5097001;27;45289;-43
2021/12/10 02:40:13;;;;;;;;;2.00;0.00;;;;;;;;5096501;27;45499;-45
2021/12/10 02:42:38;;;;;;;;;0.00;0.00;;;;;;;;5096616;27;45321;-44
2021/12/10 02:45:05;;;;;;;;;0.00;0.00;;;;;;;;5090444;27;45488;-44
2021/12/10 02:47:31;;;;;;;;;0.00;0.00;;;;;;;;5111608;27;45369;-44
2021/12/10 02:49:56;;;;;;;;;0.00;0.00;;;;;;;;5097660;27;45335;-43
2021/12/10 02:52:24;;;;;;;;;0.00;0.00;;;;;;;;5097005;27;45306;-43
2021/12/10 02:54:49;;;;;;;;;0.25;0.00;;;;;;;;5089771;27;45409;-43
2021/12/10 02:57:16;;;;;;;;;0.00;0.00;;;;;;;;5058107;28;45210;-45
2021/12/10 02:59:41;;;;;;;;;0.00;0.00;;;;;;;;5077856;27;46651;-44
2021/12/10 03:02:10;;;;;;;;;0.00;0.00;;;;;;;;5096081;27;45474;-43
2021/12/10 03:04:35;;;;;;;;;1.00;1.00;;;;;;;;5096515;27;45358;-43
2021/12/10 03:07:03;;;;;;;;;0.00;0.00;;;;;;;;5096632;27;45517;-43
2021/12/10 03:09:29;;;;;;;;;0.00;0.00;;;;;;;;5095395;27;46594;-43
2021/12/10 03:11:56;;;;;;;;;0.50;0.50;;;;;;;;5095775;27;45289;-42
2021/12/10 03:14:26;;;;;;;;;0.00;0.00;;;;;;;;5096357;27;45387;-43
2021/12/10 03:16:53;;;;;;;;;0.25;0.25;;;;;;;;5095331;27;45537;-43
2021/12/10 03:19:18;;;;;;;;;0.00;0.00;;;;;;;;5096419;27;46300;-44
2021/12/10 03:21:45;;;;;;;;;1.00;1.00;;;;;;;;5096488;27;45405;-43
2021/12/10 03:24:11;;;;;;;;;0.00;0.00;;;;;;;;5096423;27;45222;-43
2021/12/10 03:26:36;;;;;;;;;0.75;0.75;;;;;;;;5095441;27;45482;-42
2021/12/10 03:29:02;;;;;;;;;0.00;0.00;;;;;;;;5096074;27;46670;-44
2021/12/10 03:31:27;;;;;;;;;0.00;0.00;;;;;;;;5096160;27;45672;-43
2021/12/10 03:33:54;;;;;;;;;0.00;0.00;;;;;;;;5096567;27;45462;-45
2021/12/10 03:36:19;;;;;;;;;0.00;0.00;;;;;;;;5095574;27;45445;-43
2021/12/10 03:38:44;;;;;;;;;0.00;0.00;;;;;;;;5095701;27;46214;-45
2021/12/10 03:41:11;;;;;;;;;0.75;0.75;;;;;;;;5096406;27;45338;-43
2021/12/10 03:43:36;;;;;;;;;0.00;0.00;;;;;;;;5096681;27;45404;-42
2021/12/10 03:46:02;;;;;;;;;0.00;0.00;;;;;;;;5095633;27;45634;-43
2021/12/10 03:48:31;;;;;;;;;0.00;0.00;;;;;;;;5094991;27;45544;-44
2021/12/10 03:50:58;;;;;;;;;1.00;0.00;;;;;;;;5096408;27;45317;-45
2021/12/10 03:53:23;;;;;;;;;2.00;0.25;;;;;;;;5096111;27;45441;-45
2021/12/10 03:55:49;;;;;;;;;1.00;1.00;;;;;;;;5095844;27;45378;-43
2021/12/10 03:58:14;;;;;;;;;0.00;0.00;;;;;;;;5094762;27;45991;-43
2021/12/10 04:00:42;;;;;;;;;0.50;0.50;;;;;;;;5095309;27;45440;-45
2021/12/10 04:03:08;;;;;;;;;0.25;0.25;;;;;;;;5078107;27;45385;-42
2021/12/10 04:05:33;;;;;;;;;1.00;1.00;;;;;;;;5096080;27;45540;-43
2021/12/10 04:07:59;;;;;;;;;1.75;1.75;;;;;;;;5095235;27;46205;-43
2021/12/10 04:10:24;;;;;;;;;1.00;1.00;;;;;;;;5096770;27;45475;-43
2021/12/10 04:12:50;;;;;;;;;5.00;2.75;;;;;;;;5099620;27;45399;-45
2021/12/10 04:15:18;;;;;;;;;3.50;2.25;;;;;;;;5097121;27;45196;-43
2021/12/10 04:17:44;;;;;;;;;1.00;1.00;;;;;;;;5096959;27;46584;-43
2021/12/10 04:20:10;;;;;;;;;1.00;1.00;;;;;;;;5099010;27;45454;-42
2021/12/10 04:22:35;;;;;;;;;2.00;2.00;;;;;;;;5098996;27;45298;-45
2021/12/10 04:25:03;;;;;;;;;1.75;1.75;;;;;;;;5098722;27;45384;-44
2021/12/10 04:27:28;;;;;;;;;1.25;1.25;;;;;;;;5098723;27;47224;-42
2021/12/10 04:29:56;;;;;;;;;4.75;1.00;;;;;;;;5098995;27;45423;-46
2021/12/10 04:32:23;;;;;;;;;1.00;1.00;;;;;;;;5098164;27;45582;-42
2021/12/10 04:34:48;;;;;;;;;3.00;2.00;;;;;;;;5099190;27;45443;-44
2021/12/10 04:37:14;;;;;;;;;2.25;2.25;;;;;;;;5097624;27;46315;-43
2021/12/10 04:39:45;;;;;;;;;5.75;2.75;;;;;;;;5098803;27;45304;-43
2021/12/10 04:42:10;;;;;;;;;2.00;2.00;;;;;;;;5080698;27;45298;-42
2021/12/10 04:44:36;;;;;;;;;3.00;3.00;;;;;;;;5078060;27;45528;-42
2021/12/10 04:47:01;;;;;;;;;3.25;3.25;;;;;;;;5087384;27;45564;-43
2021/12/10 04:49:26;;;;;;;;;4.25;2.75;;;;;;;;5099011;27;45292;-44
2021/12/10 04:51:52;;;;;;;;;2.00;2.00;;;;;;;;5099019;27;45319;-42
2021/12/10 04:54:19;;;;;;;;;6.75;2.75;;;;;;;;5098243;27;45513;-44
2021/12/10 04:56:44;;;;;;;;;5.50;4.25;;;;;;;;5097662;27;45322;-46
2021/12/10 04:59:11;;;;;;;;;5.75;3.25;;;;;;;;5098435;27;45349;-42
2021/12/10 05:01:36;;;;;;;;;3.00;2.00;;;;;;;;5098263;27;45787;-46
2021/12/10 05:04:02;;;;;;;;;2.50;2.50;;;;;;;;5098482;27;45527;-45
2021/12/10 05:06:27;;;;;;;;;6.75;3.50;;;;;;;;5097366;27;45481;-43
2021/12/10 05:08:53;;;;;;;;;3.00;1.25;;;;;;;;5098394;27;45512;-43
2021/12/10 05:11:18;;;;;;;;;2.67;2.00;;;;;;;;5098468;27;45449;-43
2021/12/10 05:13:46;;;;;;;;;4.50;3.50;;;;;;;;5080195;27;46146;-44
2021/12/10 05:16:11;;;;;;;;;2.25;2.25;;;;;;;;5078914;27;47290;-42
2021/12/10 05:18:40;;;;;;;;;8.00;3.75;;;;;;;;5097883;27;45378;-42
2021/12/10 05:21:06;;;;;;;;;7.00;4.67;;;;;;;;5096441;27;45393;-43
2021/12/10 05:23:32;;;;;;;;;6.75;5.00;;;;;;;;5098422;27;45353;-45
2021/12/10 05:25:57;;;;;;;;;5.00;2.75;;;;;;;;5098160;27;46209;-42
2021/12/10 05:28:24;;;;;;;;;3.25;1.75;;;;;;;;5097281;27;45292;-42
2021/12/10 05:30:54;;;;;;;;;6.25;2.25;;;;;;;;5097796;27;45364;-42
2021/12/10 05:33:19;;;;;;;;;1.75;1.25;;;;;;;;5098077;27;45532;-43
2021/12/10 05:35:46;;;;;;;;;3.00;3.00;;;;;;;;5096537;27;45359;-43
2021/12/10 05:38:11;;;;;;;;;6.00;3.75;;;;;;;;5096380;27;45469;-43
2021/12/10 05:40:36;;;;;;;;;5.50;3.00;;;;;;;;5097855;27;45390;-43
2021/12/10 05:43:01;;;;;;;;;2.00;2.00;;;;;;;;5098212;27;45363;-45
2021/12/10 05:45:27;;;;;;;;;4.25;2.25;;;;;;;;5096985;27;45487;-42
2021/12/10 05:47:52;;;;;;;;;4.33;3.00;;;;;;;;5097604;27;45390;-44
2021/12/10 05:50:19;;;;;;;;;2.00;2.00;;;;;;;;5097690;27;45508;-44
2021/12/10 05:52:44;;;;;;;;;3.25;3.25;;;;;;;;5097401;27;45181;-42
2021/12/10 05:55:10;;;;;;;;;3.75;2.50;;;;;;;;5096751;27;45388;-44
2021/12/10 05:57:36;;;;;;;;;4.25;2.50;;;;;;;;5097798;27;45215;-45
2021/12/10 06:00:03;;;;;;;;;2.75;2.75;;;;;;;;5097831;27;45204;-44
2021/12/10 06:02:28;;;;;;;;;6.00;3.25;;;;;;;;5092655;27;45590;-43
2021/12/10 06:04:53;;;;;;;;;5.75;2.00;;;;;;;;5096608;27;45471;-41
2021/12/10 06:07:18;;;;;;;;;6.75;4.25;;;;;;;;5097316;27;45326;-42
2021/12/10 06:09:44;;;;;;;;;6.50;3.25;;;;;;;;5097584;27;45368;-43
2021/12/10 06:12:10;;;;;;;;;3.75;2.00;;;;;;;;5097264;27;45255;-42
2021/12/10 06:14:35;;;;;;;;;9.00;3.00;;;;;;;;5097151;27;46614;-43
2021/12/10 06:17:01;;;;;;;;;6.00;4.25;;;;;;;;5096898;27;45433;-43
2021/12/10 06:19:26;;;;;;;;;2.75;2.75;;;;;;;;5096682;27;45527;-44
2021/12/10 06:21:53;;;;;;;;;3.75;3.75;;;;;;;;5097184;27;45568;-41
2021/12/10 06:24:18;;;;;;;;;2.00;2.00;;;;;;;;5096624;27;45471;-42
2021/12/10 06:26:43;;;;;;;;;2.00;2.00;;;;;;;;5077525;27;45438;-42
2021/12/10 06:29:09;;;;;;;;;1.25;1.25;;;;;;;;5097225;27;45544;-42
2021/12/10 06:31:34;;;;;;;;;3.50;3.50;;;;;;;;5096619;27;45362;-42
2021/12/10 06:34:00;;;;;;;;;2.75;2.75;;;;;;;;5096213;27;46009;-43
2021/12/10 06:36:25;;;;;;;;;2.00;2.00;;;;;;;;5096189;27;45239;-41
2021/12/10 06:38:51;;;;;;;;;6.25;6.25;;;;;;;;5097240;27;45271;-43
2021/12/10 06:41:16;;;;;;;;;2.00;2.00;;;;;;;;5096723;27;45547;-42
2021/12/10 06:43:42;;;;;;;;;0.50;0.50;;;;;;;;5096341;27;46144;-43
2021/12/10 06:46:07;;;;;;;;;4.25;4.25;;;;;;;;5077381;27;45370;-43
2021/12/10 06:48:33;;;;;;;;;7.50;3.25;;;;;;;;5097043;27;45340;-43
2021/12/10 06:51:00;;;;;;;;;2.00;1.75;;;;;;;;5096615;27;45411;-40
2021/12/10 06:53:26;;;;;;;;;3.00;2.25;;;;;;;;5095347;27;45432;-42
2021/12/10 06:55:52;;;;;;;;;3.00;1.25;;;;;;;;5086919;27;46702;-44
2021/12/10 06:58:17;;;;;;;;;1.75;1.75;;;;;;;;5096108;27;45548;-42
2021/12/10 07:00:51;;;;;;;;;2.00;1.00;;;;;;;;5096025;27;45536;-43
2021/12/10 07:03:18;;;;;;;;;1.00;1.00;;;;;;;;5095960;27;46271;-43
2021/12/10 07:05:43;;;;;;;;;0.50;0.50;;;;;;;;5096595;27;45401;-50
2021/12/10 07:08:09;;;;;;;;;2.00;2.00;;;;;;;;5095674;27;45448;-44
2021/12/10 07:10:35;;;;;;;;;1.00;0.67;;;;;;;;5095831;27;45479;-43
2021/12/10 07:13:03;;;;;;;;;1.75;1.75;;;;;;;;5096015;27;45295;-44
2021/12/10 07:15:28;;;;;;;;;3.00;1.50;;;;;;;;5094932;27;45444;-45
2021/12/10 07:17:53;;;;;;;;;0.50;0.50;;;;;;;;5087277;27;45574;-45
2021/12/10 07:20:23;;;;;;;;;0.75;0.25;;;;;;;;5094613;27;45520;-44
2021/12/10 07:22:48;;;;;;;;;2.00;2.00;;;;;;;;5095502;27;45205;-45
2021/12/10 07:25:14;;;;;;;;;1.67;1.00;;;;;;;;5091035;27;45486;-45
2021/12/10 07:27:39;;;;;;;;;3.00;2.00;;;;;;;;5095765;27;45227;-44
2021/12/10 07:30:05;;;;;;;;;0.33;0.33;;;;;;;;5095170;27;45395;-45
2021/12/10 07:32:30;;;;;;;;;1.00;1.00;;;;;;;;5092450;27;45402;-45
2021/12/10 07:34:55;;;;;;;;;1.75;1.50;;;;;;;;5096464;27;45323;-43
2021/12/10 07:37:21;;;;;;;;;3.00;1.75;;;;;;;;5095954;27;45422;-43
2021/12/10 07:39:46;;;;;;;;;2.00;2.00;;;;;;;;5076844;27;45488;-44
2021/12/10 07:42:12;;;;;;;;;1.00;1.00;;;;;;;;5095881;27;45329;-52
2021/12/10 07:44:37;;;;;;;;;2.00;2.00;;;;;;;;5095121;27;45308;-46
2021/12/10 07:47:04;;;;;;;;;0.50;0.50;;;;;;;;5097066;27;45489;-45
2021/12/10 07:49:31;;;;;;;;;1.00;0.00;;;;;;;;5098399;27;45454;-47
2021/12/10 07:51:57;;;;;;;;;1.00;1.00;;;;;;;;5098157;27;45927;-48
2021/12/10 07:54:22;;;;;;;;;2.00;0.00;;;;;;;;5098683;27;45389;-48
2021/12/10 07:56:48;;;;;;;;;2.50;0.00;;;;;;;;5098881;27;45532;-47
2021/12/10 07:59:13;;;;;;;;;1.25;1.25;;;;;;;;5099334;27;45477;-49
2021/12/10 08:01:39;;;;;;;;;1.00;1.00;;;;;;;;5097909;27;45429;-48
2021/12/10 08:04:05;;;;;;;;;0.00;0.00;;;;;;;;5099350;27;45409;-47
2021/12/10 08:06:31;;;;;;;;;1.00;1.00;;;;;;;;5098117;27;45465;-45
2021/12/10 08:08:56;;;;;;;;;1.00;0.00;;;;;;;;5098448;27;45433;-48
2021/12/10 08:11:23;;;;;;;;;2.00;2.00;;;;;;;;5099056;27;45416;-49
2021/12/10 08:13:48;;;;;;;;;1.00;1.00;;;;;;;;5098236;27;45480;-49
2021/12/10 08:16:14;;;;;;;;;1.00;1.00;;;;;;;;5097817;27;45493;-48
2021/12/10 08:18:39;;;;;;;;;0.00;0.00;;;;;;;;5090526;27;45470;-46
2021/12/10 08:21:06;;;;;;;;;1.00;1.00;;;;;;;;5078479;28;46396;-47
2021/12/10 08:23:32;;;;;;;;;2.00;2.00;;;;;;;;5094059;27;45387;-49
2021/12/10 08:25:58;;;;;;;;;2.00;0.75;;;;;;;;5098735;27;45281;-47
2021/12/10 08:28:25;;;;;;;;;1.00;0.00;;;;;;;;5098399;27;45283;-44
2021/12/10 08:30:51;;;;;;;;;0.00;0.00;;;;;;;;5094401;27;46425;-46
2021/12/10 08:33:16;;;;;;;;;0.00;0.00;;;;;;;;5062029;27;45457;-47
2021/12/10 08:35:43;;;;;;;;;0.00;0.00;;;;;;;;5077492;27;45366;-46
2021/12/10 08:38:09;;;;;;;;;2.00;1.25;;;;;;;;5077155;28;45397;-44
2021/12/10 08:40:36;;;;;;;;;2.50;2.50;;;;;;;;5077601;28;46807;-47
2021/12/10 08:43:01;;;;;;;;;0.00;0.00;;;;;;;;5077031;28;45582;-48
2021/12/10 08:45:27;;;;;;;;;3.00;2.00;;;;;;;;5077802;27;45456;-45
2021/12/10 08:47:53;;;;;;;;;0.75;0.75;;;;;;;;5096751;27;45388;-46
2021/12/10 08:50:22;;;;;;;;;3.00;1.00;;;;;;;;5094617;27;45344;-45
2021/12/10 08:52:48;;;;;;;;;1.00;1.00;;;;;;;;5076786;28;45229;-47
2021/12/10 08:55:14;;;;;;;;;0.00;0.00;;;;;;;;5058228;27;45301;-48
2021/12/10 08:57:39;;;;;;;;;1.00;1.00;;;;;;;;5057514;28;45382;-48
2021/12/10 09:00:06;;;;;;;;;0.75;0.50;;;;;;;;5058859;28;45311;-48
2021/12/10 09:02:34;;;;;;;;;1.00;1.00;;;;;;;;5077150;28;45549;-47
2021/12/10 09:04:59;;;;;;;;;0.50;0.50;;;;;;;;5076362;27;45492;-49
2021/12/10 09:07:24;;;;;;;;;2.00;1.00;;;;;;;;5077290;28;45588;-46
2021/12/10 09:09:50;;;;;;;;;1.00;1.00;;;;;;;;5077738;28;45604;-48
2021/12/10 09:12:22;;;;;;;;;3.00;0.00;;;;;;;;5076944;28;45489;-46
2021/12/10 09:14:52;;;;;;;;;1.00;1.00;;;;;;;;5077237;27;45395;-51
2021/12/10 09:17:21;;;;;;;;;1.00;1.00;;;;;;;;5075503;28;45599;-48
2021/12/10 09:19:47;;;;;;;;;2.25;2.25;;;;;;;;5076685;27;46676;-47
2021/12/10 09:22:12;;;;;;;;;2.00;2.00;;;;;;;;5075526;27;45496;-47
2021/12/10 09:24:38;;;;;;;;;1.75;1.00;;;;;;;;5077713;28;45523;-48
2021/12/10 09:27:04;;;;;;;;;1.25;0.50;;;;;;;;5077370;28;45357;-45
2021/12/10 09:29:35;;;;;;;;;2.25;1.50;;;;;;;;5072582;28;46295;-44
2021/12/10 09:32:01;;;;;;;;;3.00;2.00;;;;;;;;5077078;28;45315;-46
2021/12/10 09:34:26;;;;;;;;;4.00;4.00;;;;;;;;5077243;27;45341;-45
2021/12/10 09:36:52;;;;;;;;;2.00;2.00;;;;;;;;5062364;28;45611;-45
2021/12/10 09:39:18;;;;;;;;;1.50;0.50;;;;;;;;5077628;27;46217;-45
2021/12/10 09:41:43;;;;;;;;;3.75;3.75;;;;;;;;5076620;27;45320;-48
2021/12/10 09:44:08;;;;;;;;;3.00;3.00;;;;;;;;5076381;27;45556;-47
2021/12/10 09:46:38;;;;;;;;;8.00;7.00;;;;;;;;5081257;27;45442;-48
2021/12/10 09:49:04;;;;;;;;;2.50;1.50;;;;;;;;5077394;27;46731;-48
2021/12/10 09:51:31;;;;;;;;;6.00;4.50;;;;;;;;5076862;27;45460;-48
2021/12/10 09:53:58;;;;;;;;;3.00;2.00;;;;;;;;5077568;27;45403;-46
2021/12/10 09:56:24;;;;;;;;;0.00;0.00;;;;;;;;5076827;27;45492;-48
2021/12/10 09:58:53;;;;;;;;;5.00;5.00;;;;;;;;5075966;27;45407;-48
2021/12/10 10:01:21;;;;;;;;;5.25;5.25;;;;;;;;5076685;28;45421;-48
2021/12/10 10:03:48;;;;;;;;;5.25;5.00;;;;;;;;5076112;28;45405;-47
2021/12/10 10:06:13;;;;;;;;;2.00;2.00;;;;;;;;5077023;28;45474;-48
2021/12/10 10:08:39;;;;;;;;;7.00;6.00;;;;;;;;5075094;28;46180;-46
2021/12/10 10:11:08;;;;;;;;;2.00;2.00;;;;;;;;5076892;27;45421;-47
2021/12/10 10:13:36;;;;;;;;;2.00;2.00;;;;;;;;5075814;27;45394;-47
2021/12/10 10:16:01;;;;;;;;;8.00;3.00;;;;;;;;5075672;27;45563;-49
2021/12/10 10:18:27;;;;;;;;;2.75;2.75;;;;;;;;5076292;27;45484;-47
2021/12/10 10:20:56;;;;;;;;;2.75;2.00;;;;;;;;5076095;27;45352;-46
2021/12/10 10:23:22;;;;;;;;;2.25;2.00;;;;;;;;5075072;28;45302;-45
2021/12/10 10:25:49;;;;;;;;;1.75;1.75;;;;;;;;5074946;27;45335;-47
2021/12/10 10:28:15;;;;;;;;;4.00;2.00;;;;;;;;5076355;27;46733;-46
2021/12/10 10:30:52;;;;;;;;;3.75;3.75;;;;;;;;5072398;27;46152;-48
2021/12/10 10:33:17;;;;;;;;;3.00;2.25;;;;;;;;5065517;28;45465;-45
2021/12/10 10:35:47;;;;;;;;;1.75;1.75;;;;;;;;5075705;28;45374;-45
2021/12/10 10:38:13;;;;;;;;;4.25;4.25;;;;;;;;5075075;27;45621;-46
2021/12/10 10:40:40;;;;;;;;;1.75;1.50;;;;;;;;5076323;28;45497;-45
2021/12/10 10:43:06;;;;;;;;;2.67;1.67;;;;;;;;5076663;28;45479;-47
2021/12/10 10:45:33;;;;;;;;;1.00;1.00;;;;;;;;5075815;28;45447;-45
2021/12/10 10:47:59;;;;;;;;;3.25;3.25;;;;;;;;5076239;27;46050;-47
2021/12/10 10:50:28;;;;;;;;;3.00;1.00;;;;;;;;5076440;27;45434;-48
2021/12/10 10:52:55;;;;;;;;;1.50;1.00;;;;;;;;5096914;27;45352;-45
2021/12/10 10:55:22;;;;;;;;;3.00;2.00;;;;;;;;5074874;28;45333;-45
2021/12/10 10:57:49;;;;;;;;;4.25;2.25;;;;;;;;5075088;28;45435;-46
2021/12/10 11:00:22;;;;;;;;;2.00;2.00;;;;;;;;5075776;28;45252;-47
2021/12/10 11:02:53;;;;;;;;;2.00;1.00;;;;;;;;5074957;28;45384;-48
2021/12/10 11:05:20;;;;;;;;;1.00;1.00;;;;;;;;5075870;27;45438;-46
2021/12/10 11:07:51;;;;;;;;;2.75;2.75;;;;;;;;5074853;28;46071;-47
2021/12/10 11:10:51;;;;;;;;;3.00;1.00;;;;;;;;5075402;28;45361;-45
2021/12/10 11:13:20;;;;;;;;;2.25;1.50;;;;;;;;5063303;28;45354;-44
2021/12/10 11:15:56;;;;;;;;;5.25;1.75;;;;;;;;5075190;27;45368;-47
2021/12/10 11:18:21;;;;;;;;;1.00;1.00;;;;;;;;5075096;27;46367;-48
2021/12/10 11:20:46;;;;;;;;;15.25;11.75;;;;;;;;5076459;27;45406;-47
2021/12/10 11:23:12;;;;;;;;;88.50;74.75;;;;;;;;5079108;28;45336;-47
2021/12/10 11:25:38;;;;;;;;;2.25;2.25;;;;;;;;5072210;28;45288;-46
2021/12/10 11:28:07;;;;;;;;;4.00;3.00;;;;;;;;5079220;27;45354;-44
2021/12/10 11:30:33;;;;;;;;;3.75;2.50;;;;;;;;5078668;27;45457;-47
2021/12/10 11:33:01;;;;;;;;;1.75;1.75;;;;;;;;5079331;27;45263;-46
2021/12/10 11:35:34;;;;;;;;;4.00;3.50;;;;;;;;5079130;27;45271;-46
2021/12/10 11:38:01;;;;;;;;;3.00;2.00;;;;;;;;5077467;27;46323;-46
2021/12/10 11:40:34;;;;;;;;;3.00;3.00;;;;;;;;5078699;28;45612;-46
2021/12/10 11:43:17;;;;;;;;;2.00;2.00;;;;;;;;5078576;28;45427;-48
2021/12/10 11:45:50;;;;;;;;;2.00;2.00;;;;;;;;5079255;27;45389;-45
2021/12/10 11:48:25;;;;;;;;;8.75;8.75;;;;;;;;5074318;27;47015;-45
2021/12/10 11:51:17;;;;;;;;;3.33;3.00;;;;;;;;5077180;27;45325;-45
2021/12/10 11:53:51;;;;;;;;;3.00;3.00;;;;;;;;5097069;27;45338;-48
2021/12/10 11:56:22;;;;;;;;;1.00;1.00;;;;;;;;5097036;27;45429;-45
2021/12/10 11:59:17;;;;;;;;;2.00;2.00;;;;;;;;5078846;28;46156;-47
2021/12/10 12:01:48;;;;;;;;;2.00;2.00;;;;;;;;5062633;28;45451;-46
2021/12/10 12:04:33;;;;;;;;;1.00;1.00;;;;;;;;5078535;28;45314;-46
2021/12/10 12:07:17;;;;;;;;;1.00;1.00;;;;;;;;5078370;28;45656;-46
2021/12/10 12:09:44;;;;;;;;;4.00;2.33;;;;;;;;5077330;28;46391;-46
2021/12/10 12:12:10;;;;;;;;;1.00;1.00;;;;;;;;5075428;28;45572;-46
2021/12/10 12:14:36;;;;;;;;;2.00;1.00;;;;;;;;5078055;28;45528;-48
2021/12/10 12:17:04;;;;;;;;;1.00;1.00;;;;;;;;5077276;27;45426;-48
2021/12/10 12:19:30;;;;;;;;;1.33;1.33;;;;;;;;5076071;27;45480;-47
2021/12/10 12:21:58;;;;;;;;;1.00;1.00;;;;;;;;5070948;27;45452;-48
2021/12/10 12:27:08;;;;;;;;;1.00;1.00;;;;;;;;5072924;27;45356;-42
2021/12/10 12:29:38;;;;;;;;;1.00;1.00;;;;;;;;5077677;27;46454;-43
2021/12/10 12:32:08;;;;;;;;;1.00;1.00;;;;;;;;5076962;27;45547;-42
2021/12/10 12:34:34;;;;;;;;;1.00;0.75;;;;;;;;5078593;28;45412;-44
2021/12/10 12:37:02;;;;;;;;;1.00;0.00;;;;;;;;5077855;28;45460;-44
2021/12/10 12:39:38;;;;;;;;;0.00;0.00;;;;;;;;5077864;28;45412;-42
2021/12/10 12:42:05;;;;;;;;;1.00;1.00;;;;;;;;5075868;27;45501;-43
2021/12/10 12:44:35;;;;;;;;;1.00;1.00;;;;;;;;5078213;27;45354;-45
2021/12/10 12:47:03;;;;;;;;;1.67;1.00;;;;;;;;5073365;27;45539;-44
2021/12/10 12:49:38;;;;;;;;;1.33;1.00;;;;;;;;5077339;27;45368;-44
2021/12/10 12:52:03;;;;;;;;;3.33;1.33;;;;;;;;5087534;27;46000;-44
2021/12/10 12:54:29;;;;;;;;;1.00;1.00;;;;;;;;5080426;27;45428;-45
2021/12/10 12:56:54;;;;;;;;;3.67;2.00;;;;;;;;5078291;28;45401;-46
2021/12/10 12:59:20;;;;;;;;;1.00;1.00;;;;;;;;5077511;28;45921;-50
2021/12/10 13:01:47;;;;;;;;;2.67;1.00;;;;;;;;5077993;28;45380;-45
2021/12/10 13:04:15;;;;;;;;;2.00;1.00;;;;;;;;5078194;28;45184;-45
2021/12/10 13:06:58;;;;;;;;;3.25;2.25;;;;;;;;5077486;28;45394;-44
2021/12/10 13:09:27;;;;;;;;;4.50;2.50;;;;;;;;5076931;27;45535;-45
2021/12/10 13:12:06;;;;;;;;;2.00;2.00;;;;;;;;5077498;28;45452;-44
2021/12/10 13:14:39;;;;;;;;;0.67;0.67;;;;;;;;5068305;28;45413;-43
2021/12/10 13:17:15;;;;;;;;;0.00;0.00;;;;;;;;5071164;28;45470;-44
2021/12/10 13:19:41;;;;;;;;;2.33;1.33;;;;;;;;5077385;28;46074;-45
2021/12/10 13:22:08;;;;;;;;;3.00;1.00;;;;;;;;5076969;28;45349;-44
2021/12/10 13:24:35;;;;;;;;;2.33;2.33;;;;;;;;5076277;27;45459;-45
2021/12/10 13:27:00;;;;;;;;;1.00;1.00;;;;;;;;5077529;28;45462;-44
2021/12/10 13:29:27;;;;;;;;;1.50;1.50;;;;;;;;5077243;28;45406;-43
2021/12/10 13:31:53;;;;;;;;;1.33;1.33;;;;;;;;5076844;28;45487;-43
2021/12/10 13:34:18;;;;;;;;;5.00;1.00;;;;;;;;5075911;28;45505;-45
2021/12/10 13:36:43;;;;;;;;;4.00;2.67;;;;;;;;5076021;27;45290;-43
2021/12/10 13:39:10;;;;;;;;;62.00;49.67;;;;;;;;5077239;27;45918;-45
2021/12/10 13:41:35;;;;;;;;;39.25;34.50;;;;;;;;5076729;27;45361;-44
2021/12/10 13:44:07;;;;;;;;;1.00;1.00;;;;;;;;5075806;27;45357;-45
2021/12/10 13:46:43;;;;;;;;;1.00;1.00;;;;;;;;5077357;28;45495;-44
2021/12/10 13:49:09;;;;;;;;;1.00;1.00;;;;;;;;5077191;27;45361;-44
2021/12/10 13:51:41;;;;;;;;;0.00;0.00;;;;;;;;5076764;27;45641;-50
2021/12/10 13:54:06;;;;;;;;;1.00;1.00;;;;;;;;5074303;27;45492;-44
2021/12/10 13:56:33;;;;;;;;;1.00;1.00;;;;;;;;5084716;27;45572;-47
2021/12/10 13:58:59;;;;;;;;;0.00;0.00;;;;;;;;5076666;27;45572;-44
2021/12/10 14:01:33;;;;;;;;;2.00;1.25;;;;;;;;5076723;28;45410;-44
2021/12/10 14:03:58;;;;;;;;;1.67;1.00;;;;;;;;5076537;28;45370;-44
2021/12/10 14:06:41;;;;;;;;;1.00;1.00;;;;;;;;5076330;28;45632;-45
2021/12/10 14:09:32;;;;;;;;;1.33;1.00;;;;;;;;5075867;27;46045;-44
2021/12/10 14:12:03;;;;;;;;;1.00;1.00;;;;;;;;5076580;28;45436;-44
2021/12/10 14:14:30;;;;;;;;;0.00;0.00;;;;;;;;5076973;28;45279;-45
2021/12/10 14:16:57;;;;;;;;;1.00;1.00;;;;;;;;5076526;28;45331;-46
2021/12/10 14:19:41;;;;;;;;;0.67;0.67;;;;;;;;5076726;28;47376;-43
2021/12/10 14:22:08;;;;;;;;;5.33;3.00;;;;;;;;5076679;27;45369;-43
2021/12/10 14:24:48;;;;;;;;;1.67;1.00;;;;;;;;5076839;28;45314;-43
2021/12/10 14:27:16;;;;;;;;;1.00;1.00;;;;;;;;5076436;28;45327;-43
2021/12/10 14:29:41;;;;;;;;;2.50;2.00;;;;;;;;5076133;28;46325;-43
2021/12/10 14:32:36;;;;;;;;;10.25;8.25;;;;;;;;5076131;28;45303;-44
2021/12/10 14:35:10;;;;;;;;;4.00;1.00;;;;;;;;5062329;27;45612;-44
2021/12/10 14:37:49;;;;;;;;;3.00;2.00;;;;;;;;5076013;28;45482;-46
2021/12/10 14:40:15;;;;;;;;;0.00;0.00;;;;;;;;5074703;28;45705;-43
2021/12/10 14:43:00;;;;;;;;;1.00;1.00;;;;;;;;5075114;28;45421;-43
2021/12/10 14:45:26;;;;;;;;;3.50;2.25;;;;;;;;5075095;27;45235;-44
2021/12/10 14:48:12;;;;;;;;;1.25;1.00;;;;;;;;5059054;28;45462;-43
2021/12/10 14:50:37;;;;;;;;;1.00;1.00;;;;;;;;5075301;28;45351;-44
2021/12/10 14:53:23;;;;;;;;;0.00;0.00;;;;;;;;5094200;27;45301;-43
2021/12/10 14:55:48;;;;;;;;;0.00;0.00;;;;;;;;5087768;27;45369;-43
2021/12/10 14:58:15;;;;;;;;;0.00;0.00;;;;;;;;5074586;27;45507;-42
2021/12/10 15:00:45;;;;;;;;;1.00;1.00;;;;;;;;5075431;27;45580;-43
2021/12/10 15:03:20;;;;;;;;;1.50;1.50;;;;;;;;5075945;27;45452;-46